sensor_id;sensor_type;location;lat;lon;timestamp;P1;durP1;ratioP1;P2;durP2;ratioP2
13708;SDS011;54933;51.908;7.730;2024-02-15T00:00:09;0.80;;;0.80;;
13708;SDS011;54933;51.908;7.730;2024-02-15T00:02:35;0.60;;;0.60;;
13708;SDS011;54933;51.908;7.730;2024-02-15T00:05:00;1.57;;;0.50;;
13708;SDS011;54933;51.908;7.730;2024-02-15T00:07:26;0.63;;;0.60;;
13708;SDS011;54933;51.908;7.730;2024-02-15T00:09:51;1.87;;;1.00;;
13708;SDS011;54933;51.908;7.730;2024-02-15T00:12:17;3.80;;;0.80;;
13708;SDS011;54933;51.908;7.730;2024-02-15T00:14:43;2.93;;;0.80;;
13708;SDS011;54933;51.908;7.730;2024-02-15T00:17:08;0.60;;;0.50;;
13708;SDS011;54933;51.908;7.730;2024-02-15T00:19:34;0.67;;;0.60;;
13708;SDS011;54933;51.908;7.730;2024-02-15T00:21:59;2.13;;;0.90;;
13708;SDS011;54933;51.908;7.730;2024-02-15T00:24:24;1.90;;;0.90;;
13708;SDS011;54933;51.908;7.730;2024-02-15T00:26:49;1.07;;;0.53;;
13708;SDS011;54933;51.908;7.730;2024-02-15T00:29:15;2.97;;;1.10;;
13708;SDS011;54933;51.908;7.730;2024-02-15T00:31:40;0.67;;;0.67;;
13708;SDS011;54933;51.908;7.730;2024-02-15T00:34:05;1.10;;;0.60;;
13708;SDS011;54933;51.908;7.730;2024-02-15T00:36:31;1.80;;;0.60;;
13708;SDS011;54933;51.908;7.730;2024-02-15T00:38:58;0.83;;;0.60;;
13708;SDS011;54933;51.908;7.730;2024-02-15T00:41:24;0.80;;;0.80;;
13708;SDS011;54933;51.908;7.730;2024-02-15T00:43:49;0.60;;;0.60;;
13708;SDS011;54933;51.908;7.730;2024-02-15T00:46:17;1.60;;;0.63;;
13708;SDS011;54933;51.908;7.730;2024-02-15T00:48:43;0.70;;;0.70;;
13708;SDS011;54933;51.908;7.730;2024-02-15T00:51:08;0.40;;;0.40;;
13708;SDS011;54933;51.908;7.730;2024-02-15T00:53:33;0.80;;;0.80;;
13708;SDS011;54933;51.908;7.730;2024-02-15T00:55:59;0.70;;;0.70;;
13708;SDS011;54933;51.908;7.730;2024-02-15T00:58:24;0.60;;;0.60;;
13708;SDS011;54933;51.908;7.730;2024-02-15T01:00:51;0.60;;;0.60;;
13708;SDS011;54933;51.908;7.730;2024-02-15T01:03:17;0.60;;;0.60;;
13708;SDS011;54933;51.908;7.730;2024-02-15T01:05:42;1.53;;;0.50;;
13708;SDS011;54933;51.908;7.730;2024-02-15T01:08:07;2.00;;;0.63;;
13708;SDS011;54933;51.908;7.730;2024-02-15T01:10:33;1.30;;;0.73;;
13708;SDS011;54933;51.908;7.730;2024-02-15T01:13:00;4.87;;;0.77;;
13708;SDS011;54933;51.908;7.730;2024-02-15T01:15:25;0.73;;;0.50;;
13708;SDS011;54933;51.908;7.730;2024-02-15T01:17:50;0.87;;;0.60;;
13708;SDS011;54933;51.908;7.730;2024-02-15T01:20:15;0.77;;;0.73;;
13708;SDS011;54933;51.908;7.730;2024-02-15T01:22:41;0.77;;;0.77;;
13708;SDS011;54933;51.908;7.730;2024-02-15T01:25:06;0.60;;;0.60;;
13708;SDS011;54933;51.908;7.730;2024-02-15T01:27:32;0.60;;;0.60;;
13708;SDS011;54933;51.908;7.730;2024-02-15T01:29:57;0.53;;;0.53;;
13708;SDS011;54933;51.908;7.730;2024-02-15T01:32:22;0.50;;;0.50;;
13708;SDS011;54933;51.908;7.730;2024-02-15T01:34:48;0.57;;;0.57;;
13708;SDS011;54933;51.908;7.730;2024-02-15T01:37:15;1.10;;;0.40;;
13708;SDS011;54933;51.908;7.730;2024-02-15T01:39:41;0.73;;;0.60;;
13708;SDS011;54933;51.908;7.730;2024-02-15T01:42:06;1.80;;;0.50;;
13708;SDS011;54933;51.908;7.730;2024-02-15T01:44:31;0.40;;;0.40;;
13708;SDS011;54933;51.908;7.730;2024-02-15T01:46:56;2.60;;;0.80;;
13708;SDS011;54933;51.908;7.730;2024-02-15T01:49:22;0.97;;;0.50;;
13708;SDS011;54933;51.908;7.730;2024-02-15T01:51:51;0.80;;;0.77;;
13708;SDS011;54933;51.908;7.730;2024-02-15T01:54:19;0.53;;;0.53;;
13708;SDS011;54933;51.908;7.730;2024-02-15T01:56:45;0.50;;;0.50;;
13708;SDS011;54933;51.908;7.730;2024-02-15T01:59:12;0.50;;;0.50;;
13708;SDS011;54933;51.908;7.730;2024-02-15T02:01:42;0.77;;;0.77;;
13708;SDS011;54933;51.908;7.730;2024-02-15T02:04:09;0.60;;;0.60;;
13708;SDS011;54933;51.908;7.730;2024-02-15T02:06:35;0.40;;;0.40;;
13708;SDS011;54933;51.908;7.730;2024-02-15T02:09:02;0.57;;;0.57;;
13708;SDS011;54933;51.908;7.730;2024-02-15T02:11:28;0.50;;;0.50;;
13708;SDS011;54933;51.908;7.730;2024-02-15T02:13:54;0.60;;;0.60;;
13708;SDS011;54933;51.908;7.730;2024-02-15T02:16:29;0.80;;;0.60;;
13708;SDS011;54933;51.908;7.730;2024-02-15T02:19:00;1.60;;;0.50;;
13708;SDS011;54933;51.908;7.730;2024-02-15T02:21:26;0.50;;;0.50;;
13708;SDS011;54933;51.908;7.730;2024-02-15T02:23:53;0.77;;;0.50;;
13708;SDS011;54933;51.908;7.730;2024-02-15T02:26:21;0.40;;;0.40;;
13708;SDS011;54933;51.908;7.730;2024-02-15T02:28:48;0.43;;;0.43;;
13708;SDS011;54933;51.908;7.730;2024-02-15T02:31:14;0.70;;;0.70;;
13708;SDS011;54933;51.908;7.730;2024-02-15T02:33:47;0.40;;;0.40;;
13708;SDS011;54933;51.908;7.730;2024-02-15T02:36:13;0.60;;;0.60;;
13708;SDS011;54933;51.908;7.730;2024-02-15T02:38:39;0.57;;;0.57;;
13708;SDS011;54933;51.908;7.730;2024-02-15T02:41:05;1.37;;;0.70;;
13708;SDS011;54933;51.908;7.730;2024-02-15T02:43:30;0.50;;;0.50;;
13708;SDS011;54933;51.908;7.730;2024-02-15T02:45:55;0.40;;;0.40;;
13708;SDS011;54933;51.908;7.730;2024-02-15T02:48:20;0.60;;;0.60;;
13708;SDS011;54933;51.908;7.730;2024-02-15T02:50:46;1.37;;;0.60;;
13708;SDS011;54933;51.908;7.730;2024-02-15T02:53:12;0.87;;;0.50;;
13708;SDS011;54933;51.908;7.730;2024-02-15T02:55:40;0.60;;;0.60;;
13708;SDS011;54933;51.908;7.730;2024-02-15T02:58:06;0.60;;;0.60;;
13708;SDS011;54933;51.908;7.730;2024-02-15T03:00:32;0.70;;;0.70;;
13708;SDS011;54933;51.908;7.730;2024-02-15T03:02:57;0.50;;;0.50;;
13708;SDS011;54933;51.908;7.730;2024-02-15T03:05:23;0.40;;;0.40;;
13708;SDS011;54933;51.908;7.730;2024-02-15T03:07:48;0.67;;;0.67;;
13708;SDS011;54933;51.908;7.730;2024-02-15T03:10:16;0.70;;;0.70;;
13708;SDS011;54933;51.908;7.730;2024-02-15T03:12:41;0.60;;;0.60;;
13708;SDS011;54933;51.908;7.730;2024-02-15T03:15:13;1.43;;;0.90;;
13708;SDS011;54933;51.908;7.730;2024-02-15T03:17:39;0.73;;;0.73;;
13708;SDS011;54933;51.908;7.730;2024-02-15T03:20:09;0.80;;;0.73;;
13708;SDS011;54933;51.908;7.730;2024-02-15T03:22:47;0.70;;;0.70;;
13708;SDS011;54933;51.908;7.730;2024-02-15T03:25:22;0.53;;;0.53;;
13708;SDS011;54933;51.908;7.730;2024-02-15T03:27:52;0.60;;;0.60;;
13708;SDS011;54933;51.908;7.730;2024-02-15T03:30:18;0.60;;;0.60;;
13708;SDS011;54933;51.908;7.730;2024-02-15T03:32:47;0.60;;;0.60;;
13708;SDS011;54933;51.908;7.730;2024-02-15T03:35:18;0.93;;;0.73;;
13708;SDS011;54933;51.908;7.730;2024-02-15T03:37:45;0.43;;;0.43;;
13708;SDS011;54933;51.908;7.730;2024-02-15T03:40:10;0.73;;;0.73;;
13708;SDS011;54933;51.908;7.730;2024-02-15T03:42:36;0.50;;;0.50;;
13708;SDS011;54933;51.908;7.730;2024-02-15T03:45:05;0.70;;;0.70;;
13708;SDS011;54933;51.908;7.730;2024-02-15T03:47:33;0.60;;;0.60;;
13708;SDS011;54933;51.908;7.730;2024-02-15T03:50:00;0.60;;;0.60;;
13708;SDS011;54933;51.908;7.730;2024-02-15T03:52:26;0.70;;;0.70;;
13708;SDS011;54933;51.908;7.730;2024-02-15T03:54:52;0.60;;;0.57;;
13708;SDS011;54933;51.908;7.730;2024-02-15T03:57:17;0.70;;;0.70;;
13708;SDS011;54933;51.908;7.730;2024-02-15T03:59:45;0.70;;;0.70;;
13708;SDS011;54933;51.908;7.730;2024-02-15T04:02:15;0.70;;;0.70;;
13708;SDS011;54933;51.908;7.730;2024-02-15T04:04:41;0.60;;;0.60;;
13708;SDS011;54933;51.908;7.730;2024-02-15T04:07:08;2.03;;;0.67;;
13708;SDS011;54933;51.908;7.730;2024-02-15T04:09:33;0.50;;;0.50;;
13708;SDS011;54933;51.908;7.730;2024-02-15T04:12:00;0.90;;;0.70;;
13708;SDS011;54933;51.908;7.730;2024-02-15T04:14:26;0.60;;;0.60;;
13708;SDS011;54933;51.908;7.730;2024-02-15T04:16:51;0.70;;;0.70;;
13708;SDS011;54933;51.908;7.730;2024-02-15T04:19:16;0.70;;;0.70;;
13708;SDS011;54933;51.908;7.730;2024-02-15T04:21:44;0.70;;;0.70;;
13708;SDS011;54933;51.908;7.730;2024-02-15T04:24:10;0.70;;;0.70;;
13708;SDS011;54933;51.908;7.730;2024-02-15T04:26:35;0.97;;;0.60;;
13708;SDS011;54933;51.908;7.730;2024-02-15T04:29:02;0.70;;;0.60;;
13708;SDS011;54933;51.908;7.730;2024-02-15T04:31:28;0.60;;;0.60;;
13708;SDS011;54933;51.908;7.730;2024-02-15T04:33:53;0.60;;;0.60;;
13708;SDS011;54933;51.908;7.730;2024-02-15T04:36:19;0.60;;;0.60;;
13708;SDS011;54933;51.908;7.730;2024-02-15T04:38:49;0.77;;;0.77;;
13708;SDS011;54933;51.908;7.730;2024-02-15T04:41:15;0.73;;;0.73;;
13708;SDS011;54933;51.908;7.730;2024-02-15T04:43:44;0.63;;;0.63;;
13708;SDS011;54933;51.908;7.730;2024-02-15T04:46:13;0.60;;;0.60;;
13708;SDS011;54933;51.908;7.730;2024-02-15T04:48:39;0.60;;;0.60;;
13708;SDS011;54933;51.908;7.730;2024-02-15T04:51:06;0.70;;;0.70;;
13708;SDS011;54933;51.908;7.730;2024-02-15T04:53:32;0.50;;;0.50;;
13708;SDS011;54933;51.908;7.730;2024-02-15T04:55:57;0.80;;;0.80;;
13708;SDS011;54933;51.908;7.730;2024-02-15T04:58:25;0.80;;;0.70;;
13708;SDS011;54933;51.908;7.730;2024-02-15T05:00:51;0.60;;;0.60;;
13708;SDS011;54933;51.908;7.730;2024-02-15T05:03:22;0.70;;;0.70;;
13708;SDS011;54933;51.908;7.730;2024-02-15T05:05:47;0.70;;;0.70;;
13708;SDS011;54933;51.908;7.730;2024-02-15T05:08:12;0.70;;;0.70;;
13708;SDS011;54933;51.908;7.730;2024-02-15T05:10:39;0.77;;;0.77;;
13708;SDS011;54933;51.908;7.730;2024-02-15T05:13:04;0.60;;;0.60;;
13708;SDS011;54933;51.908;7.730;2024-02-15T05:15:29;0.83;;;0.83;;
13708;SDS011;54933;51.908;7.730;2024-02-15T05:17:55;0.67;;;0.67;;
13708;SDS011;54933;51.908;7.730;2024-02-15T05:20:21;0.60;;;0.60;;
13708;SDS011;54933;51.908;7.730;2024-02-15T05:22:46;0.50;;;0.50;;
13708;SDS011;54933;51.908;7.730;2024-02-15T05:25:12;0.80;;;0.80;;
13708;SDS011;54933;51.908;7.730;2024-02-15T05:27:37;0.50;;;0.50;;
13708;SDS011;54933;51.908;7.730;2024-02-15T05:30:03;0.87;;;0.80;;
13708;SDS011;54933;51.908;7.730;2024-02-15T05:32:35;1.17;;;0.80;;
13708;SDS011;54933;51.908;7.730;2024-02-15T05:35:06;0.60;;;0.60;;
13708;SDS011;54933;51.908;7.730;2024-02-15T05:37:33;0.80;;;0.80;;
13708;SDS011;54933;51.908;7.730;2024-02-15T05:39:59;0.60;;;0.60;;
13708;SDS011;54933;51.908;7.730;2024-02-15T05:42:25;0.70;;;0.70;;
13708;SDS011;54933;51.908;7.730;2024-02-15T05:44:51;0.60;;;0.60;;
13708;SDS011;54933;51.908;7.730;2024-02-15T05:47:17;0.70;;;0.67;;
13708;SDS011;54933;51.908;7.730;2024-02-15T05:49:42;0.70;;;0.70;;
13708;SDS011;54933;51.908;7.730;2024-02-15T05:52:08;0.57;;;0.57;;
13708;SDS011;54933;51.908;7.730;2024-02-15T05:54:33;0.60;;;0.60;;
13708;SDS011;54933;51.908;7.730;2024-02-15T05:56:59;0.80;;;0.80;;
13708;SDS011;54933;51.908;7.730;2024-02-15T05:59:25;0.93;;;0.80;;
13708;SDS011;54933;51.908;7.730;2024-02-15T06:01:51;0.70;;;0.70;;
13708;SDS011;54933;51.908;7.730;2024-02-15T06:04:16;0.60;;;0.60;;
13708;SDS011;54933;51.908;7.730;2024-02-15T06:06:41;0.80;;;0.80;;
13708;SDS011;54933;51.908;7.730;2024-02-15T06:09:07;1.90;;;0.93;;
13708;SDS011;54933;51.908;7.730;2024-02-15T06:11:33;0.90;;;0.90;;
13708;SDS011;54933;51.908;7.730;2024-02-15T06:13:58;2.53;;;0.80;;
13708;SDS011;54933;51.908;7.730;2024-02-15T06:16:23;1.60;;;1.03;;
13708;SDS011;54933;51.908;7.730;2024-02-15T06:18:49;2.70;;;1.07;;
13708;SDS011;54933;51.908;7.730;2024-02-15T06:21:14;0.97;;;0.93;;
13708;SDS011;54933;51.908;7.730;2024-02-15T06:23:40;1.90;;;1.00;;
13708;SDS011;54933;51.908;7.730;2024-02-15T06:26:05;1.10;;;1.10;;
13708;SDS011;54933;51.908;7.730;2024-02-15T06:28:31;35.37;;;3.83;;
13708;SDS011;54933;51.908;7.730;2024-02-15T06:31:15;16.70;;;2.60;;
13708;SDS011;54933;51.908;7.730;2024-02-15T06:33:59;18.00;;;1.90;;
13708;SDS011;54933;51.908;7.730;2024-02-15T06:36:49;12.57;;;1.27;;
13708;SDS011;54933;51.908;7.730;2024-02-15T06:39:37;1.80;;;1.20;;
13708;SDS011;54933;51.908;7.730;2024-02-15T06:42:06;1.73;;;1.00;;
13708;SDS011;54933;51.908;7.730;2024-02-15T06:44:32;6.50;;;1.33;;
13708;SDS011;54933;51.908;7.730;2024-02-15T06:46:58;7.30;;;1.20;;
13708;SDS011;54933;51.908;7.730;2024-02-15T06:49:23;3.30;;;0.90;;
13708;SDS011;54933;51.908;7.730;2024-02-15T06:51:50;0.80;;;0.80;;
13708;SDS011;54933;51.908;7.730;2024-02-15T06:54:16;5.90;;;1.20;;
13708;SDS011;54933;51.908;7.730;2024-02-15T06:56:43;3.33;;;1.03;;
13708;SDS011;54933;51.908;7.730;2024-02-15T06:59:11;4.53;;;0.80;;
13708;SDS011;54933;51.908;7.730;2024-02-15T07:01:39;12.40;;;1.27;;
13708;SDS011;54933;51.908;7.730;2024-02-15T07:04:06;3.27;;;1.00;;
13708;SDS011;54933;51.908;7.730;2024-02-15T07:06:33;1.53;;;0.80;;
13708;SDS011;54933;51.908;7.730;2024-02-15T07:09:00;5.67;;;0.80;;
13708;SDS011;54933;51.908;7.730;2024-02-15T07:11:25;4.03;;;1.00;;
13708;SDS011;54933;51.908;7.730;2024-02-15T07:13:50;2.67;;;1.00;;
13708;SDS011;54933;51.908;7.730;2024-02-15T07:16:19;0.87;;;0.80;;
13708;SDS011;54933;51.908;7.730;2024-02-15T07:18:44;2.27;;;0.90;;
13708;SDS011;54933;51.908;7.730;2024-02-15T07:21:11;1.60;;;0.90;;
13708;SDS011;54933;51.908;7.730;2024-02-15T07:23:39;2.80;;;1.10;;
13708;SDS011;54933;51.908;7.730;2024-02-15T07:26:06;5.40;;;1.20;;
13708;SDS011;54933;51.908;7.730;2024-02-15T07:28:31;1.43;;;0.80;;
13708;SDS011;54933;51.908;7.730;2024-02-15T07:30:56;1.17;;;0.70;;
13708;SDS011;54933;51.908;7.730;2024-02-15T07:33:22;3.40;;;0.83;;
13708;SDS011;54933;51.908;7.730;2024-02-15T07:35:48;2.27;;;0.83;;
13708;SDS011;54933;51.908;7.730;2024-02-15T07:38:19;0.93;;;0.77;;
13708;SDS011;54933;51.908;7.730;2024-02-15T07:40:47;1.97;;;0.90;;
13708;SDS011;54933;51.908;7.730;2024-02-15T07:43:13;1.43;;;0.93;;
13708;SDS011;54933;51.908;7.730;2024-02-15T07:45:39;4.00;;;0.97;;
13708;SDS011;54933;51.908;7.730;2024-02-15T07:48:04;3.73;;;1.07;;
13708;SDS011;54933;51.908;7.730;2024-02-15T07:50:30;3.03;;;1.00;;
13708;SDS011;54933;51.908;7.730;2024-02-15T07:52:56;1.93;;;0.80;;
13708;SDS011;54933;51.908;7.730;2024-02-15T07:55:21;2.13;;;0.90;;
13708;SDS011;54933;51.908;7.730;2024-02-15T07:57:46;1.47;;;0.90;;
13708;SDS011;54933;51.908;7.730;2024-02-15T08:00:13;2.03;;;0.90;;
13708;SDS011;54933;51.908;7.730;2024-02-15T08:02:41;2.00;;;1.03;;
13708;SDS011;54933;51.908;7.730;2024-02-15T08:05:07;3.27;;;1.00;;
13708;SDS011;54933;51.908;7.730;2024-02-15T08:07:36;1.00;;;0.90;;
13708;SDS011;54933;51.908;7.730;2024-02-15T08:10:09;1.97;;;1.00;;
13708;SDS011;54933;51.908;7.730;2024-02-15T08:12:38;2.30;;;1.10;;
13708;SDS011;54933;51.908;7.730;2024-02-15T08:15:04;4.83;;;1.00;;
13708;SDS011;54933;51.908;7.730;2024-02-15T08:17:30;4.03;;;1.00;;
13708;SDS011;54933;51.908;7.730;2024-02-15T08:19:55;1.90;;;0.60;;
13708;SDS011;54933;51.908;7.730;2024-02-15T08:22:20;1.47;;;0.80;;
13708;SDS011;54933;51.908;7.730;2024-02-15T08:24:48;0.80;;;0.80;;
13708;SDS011;54933;51.908;7.730;2024-02-15T08:27:17;1.47;;;1.30;;
13708;SDS011;54933;51.908;7.730;2024-02-15T08:29:42;3.37;;;0.93;;
13708;SDS011;54933;51.908;7.730;2024-02-15T08:32:07;2.07;;;0.97;;
13708;SDS011;54933;51.908;7.730;2024-02-15T08:34:33;0.73;;;0.70;;
13708;SDS011;54933;51.908;7.730;2024-02-15T08:36:58;1.17;;;1.07;;
13708;SDS011;54933;51.908;7.730;2024-02-15T08:39:23;2.20;;;0.97;;
13708;SDS011;54933;51.908;7.730;2024-02-15T08:41:50;1.77;;;0.80;;
13708;SDS011;54933;51.908;7.730;2024-02-15T08:44:15;2.33;;;1.03;;
13708;SDS011;54933;51.908;7.730;2024-02-15T08:46:45;0.90;;;0.90;;
13708;SDS011;54933;51.908;7.730;2024-02-15T08:49:10;1.63;;;0.90;;
13708;SDS011;54933;51.908;7.730;2024-02-15T08:51:38;4.00;;;1.53;;
13708;SDS011;54933;51.908;7.730;2024-02-15T08:54:04;0.70;;;0.70;;
13708;SDS011;54933;51.908;7.730;2024-02-15T08:56:29;3.13;;;1.00;;
13708;SDS011;54933;51.908;7.730;2024-02-15T08:58:54;1.07;;;0.90;;
13708;SDS011;54933;51.908;7.730;2024-02-15T09:01:19;4.10;;;1.10;;
13708;SDS011;54933;51.908;7.730;2024-02-15T09:03:45;0.97;;;0.70;;
13708;SDS011;54933;51.908;7.730;2024-02-15T09:06:10;2.60;;;0.70;;
13708;SDS011;54933;51.908;7.730;2024-02-15T09:08:35;1.10;;;0.73;;
13708;SDS011;54933;51.908;7.730;2024-02-15T09:11:01;1.37;;;1.10;;
13708;SDS011;54933;51.908;7.730;2024-02-15T09:13:26;1.97;;;0.80;;
13708;SDS011;54933;51.908;7.730;2024-02-15T09:15:51;3.40;;;0.90;;
13708;SDS011;54933;51.908;7.730;2024-02-15T09:18:16;3.60;;;0.97;;
13708;SDS011;54933;51.908;7.730;2024-02-15T09:20:47;0.97;;;0.80;;
13708;SDS011;54933;51.908;7.730;2024-02-15T09:23:14;1.77;;;1.00;;
13708;SDS011;54933;51.908;7.730;2024-02-15T09:25:39;2.23;;;0.90;;
13708;SDS011;54933;51.908;7.730;2024-02-15T09:28:05;0.70;;;0.60;;
13708;SDS011;54933;51.908;7.730;2024-02-15T09:30:31;0.87;;;0.60;;
13708;SDS011;54933;51.908;7.730;2024-02-15T09:32:57;1.70;;;0.90;;
13708;SDS011;54933;51.908;7.730;2024-02-15T09:35:22;0.80;;;0.60;;
13708;SDS011;54933;51.908;7.730;2024-02-15T09:37:48;3.03;;;0.70;;
13708;SDS011;54933;51.908;7.730;2024-02-15T09:40:14;1.43;;;0.70;;
13708;SDS011;54933;51.908;7.730;2024-02-15T09:42:41;4.37;;;0.90;;
13708;SDS011;54933;51.908;7.730;2024-02-15T09:45:09;0.83;;;0.83;;
13708;SDS011;54933;51.908;7.730;2024-02-15T09:47:39;2.00;;;0.80;;
13708;SDS011;54933;51.908;7.730;2024-02-15T09:50:08;0.73;;;0.60;;
13708;SDS011;54933;51.908;7.730;2024-02-15T09:52:39;1.13;;;0.73;;
13708;SDS011;54933;51.908;7.730;2024-02-15T09:55:05;0.93;;;0.70;;
13708;SDS011;54933;51.908;7.730;2024-02-15T09:57:36;0.93;;;0.90;;
13708;SDS011;54933;51.908;7.730;2024-02-15T10:00:01;0.70;;;0.70;;
13708;SDS011;54933;51.908;7.730;2024-02-15T10:02:32;0.93;;;0.47;;
13708;SDS011;54933;51.908;7.730;2024-02-15T10:05:01;0.70;;;0.70;;
13708;SDS011;54933;51.908;7.730;2024-02-15T10:07:26;0.70;;;0.67;;
13708;SDS011;54933;51.908;7.730;2024-02-15T10:09:54;1.57;;;0.80;;
13708;SDS011;54933;51.908;7.730;2024-02-15T10:12:19;1.80;;;0.67;;
13708;SDS011;54933;51.908;7.730;2024-02-15T10:14:47;0.60;;;0.60;;
13708;SDS011;54933;51.908;7.730;2024-02-15T10:17:15;1.47;;;0.80;;
13708;SDS011;54933;51.908;7.730;2024-02-15T10:19:42;2.93;;;0.70;;
13708;SDS011;54933;51.908;7.730;2024-02-15T10:22:09;0.60;;;0.60;;
13708;SDS011;54933;51.908;7.730;2024-02-15T10:24:35;0.70;;;0.70;;
13708;SDS011;54933;51.908;7.730;2024-02-15T10:27:02;1.97;;;0.80;;
13708;SDS011;54933;51.908;7.730;2024-02-15T10:29:29;0.50;;;0.50;;
13708;SDS011;54933;51.908;7.730;2024-02-15T10:32:05;0.70;;;0.67;;
13708;SDS011;54933;51.908;7.730;2024-02-15T10:34:35;0.87;;;0.67;;
13708;SDS011;54933;51.908;7.730;2024-02-15T10:37:13;1.17;;;0.50;;
13708;SDS011;54933;51.908;7.730;2024-02-15T10:39:39;0.97;;;0.70;;
13708;SDS011;54933;51.908;7.730;2024-02-15T10:42:06;1.70;;;0.90;;
13708;SDS011;54933;51.908;7.730;2024-02-15T10:44:32;0.60;;;0.50;;
13708;SDS011;54933;51.908;7.730;2024-02-15T10:46:59;0.50;;;0.50;;
13708;SDS011;54933;51.908;7.730;2024-02-15T10:49:25;0.87;;;0.80;;
13708;SDS011;54933;51.908;7.730;2024-02-15T10:51:56;1.80;;;0.80;;
13708;SDS011;54933;51.908;7.730;2024-02-15T10:57:40;0.63;;;0.60;;
13708;SDS011;54933;51.908;7.730;2024-02-15T11:00:11;0.60;;;0.60;;
13708;SDS011;54933;51.908;7.730;2024-02-15T11:03:00;0.40;;;0.40;;
13708;SDS011;54933;51.908;7.730;2024-02-15T11:05:33;2.50;;;0.80;;
13708;SDS011;54933;51.908;7.730;2024-02-15T11:08:00;0.60;;;0.60;;
13708;SDS011;54933;51.908;7.730;2024-02-15T11:10:28;0.50;;;0.50;;
13708;SDS011;54933;51.908;7.730;2024-02-15T11:12:54;0.73;;;0.57;;
13708;SDS011;54933;51.908;7.730;2024-02-15T11:18:00;0.83;;;0.70;;
13708;SDS011;54933;51.908;7.730;2024-02-15T11:22:57;0.60;;;0.60;;
13708;SDS011;54933;51.908;7.730;2024-02-15T11:25:39;0.60;;;0.60;;
13708;SDS011;54933;51.908;7.730;2024-02-15T11:30:51;0.47;;;0.47;;
13708;SDS011;54933;51.908;7.730;2024-02-15T11:33:32;1.10;;;0.67;;
13708;SDS011;54933;51.908;7.730;2024-02-15T11:38:30;0.93;;;0.43;;
13708;SDS011;54933;51.908;7.730;2024-02-15T11:46:08;0.80;;;0.60;;
13708;SDS011;54933;51.908;7.730;2024-02-15T11:48:35;0.33;;;0.33;;
13708;SDS011;54933;51.908;7.730;2024-02-15T11:51:04;0.53;;;0.53;;
13708;SDS011;54933;51.908;7.730;2024-02-15T11:56:48;0.53;;;0.53;;
13708;SDS011;54933;51.908;7.730;2024-02-15T11:59:19;0.77;;;0.50;;
13708;SDS011;54933;51.908;7.730;2024-02-15T12:01:56;0.57;;;0.53;;
13708;SDS011;54933;51.908;7.730;2024-02-15T12:04:39;0.60;;;0.60;;
13708;SDS011;54933;51.908;7.730;2024-02-15T12:07:23;0.80;;;0.53;;
13708;SDS011;54933;51.908;7.730;2024-02-15T12:10:16;0.57;;;0.50;;
13708;SDS011;54933;51.908;7.730;2024-02-15T12:13:02;0.57;;;0.57;;
13708;SDS011;54933;51.908;7.730;2024-02-15T12:15:59;0.80;;;0.70;;
13708;SDS011;54933;51.908;7.730;2024-02-15T12:18:43;0.43;;;0.43;;
13708;SDS011;54933;51.908;7.730;2024-02-15T12:21:12;0.57;;;0.57;;
13708;SDS011;54933;51.908;7.730;2024-02-15T12:23:41;0.50;;;0.43;;
13708;SDS011;54933;51.908;7.730;2024-02-15T12:26:07;0.40;;;0.40;;
13708;SDS011;54933;51.908;7.730;2024-02-15T12:28:34;0.40;;;0.40;;
13708;SDS011;54933;51.908;7.730;2024-02-15T12:31:00;0.47;;;0.47;;
13708;SDS011;54933;51.908;7.730;2024-02-15T12:33:26;0.73;;;0.57;;
13708;SDS011;54933;51.908;7.730;2024-02-15T12:35:52;0.80;;;0.53;;
13708;SDS011;54933;51.908;7.730;2024-02-15T12:38:30;0.57;;;0.57;;
13708;SDS011;54933;51.908;7.730;2024-02-15T12:40:55;0.90;;;0.50;;
13708;SDS011;54933;51.908;7.730;2024-02-15T12:43:21;0.73;;;0.60;;
13708;SDS011;54933;51.908;7.730;2024-02-15T12:45:47;0.50;;;0.50;;
13708;SDS011;54933;51.908;7.730;2024-02-15T12:48:12;0.47;;;0.47;;
13708;SDS011;54933;51.908;7.730;2024-02-15T12:50:37;0.40;;;0.40;;
13708;SDS011;54933;51.908;7.730;2024-02-15T12:53:03;1.20;;;0.67;;
13708;SDS011;54933;51.908;7.730;2024-02-15T12:55:29;0.77;;;0.63;;
13708;SDS011;54933;51.908;7.730;2024-02-15T12:57:59;0.47;;;0.47;;
13708;SDS011;54933;51.908;7.730;2024-02-15T13:00:28;0.50;;;0.50;;
13708;SDS011;54933;51.908;7.730;2024-02-15T13:02:58;0.60;;;0.60;;
13708;SDS011;54933;51.908;7.730;2024-02-15T13:05:25;0.50;;;0.50;;
13708;SDS011;54933;51.908;7.730;2024-02-15T13:07:51;0.30;;;0.30;;
13708;SDS011;54933;51.908;7.730;2024-02-15T13:10:20;0.40;;;0.40;;
13708;SDS011;54933;51.908;7.730;2024-02-15T13:12:46;0.67;;;0.47;;
13708;SDS011;54933;51.908;7.730;2024-02-15T13:15:12;0.47;;;0.47;;
13708;SDS011;54933;51.908;7.730;2024-02-15T13:17:48;0.63;;;0.50;;
13708;SDS011;54933;51.908;7.730;2024-02-15T13:20:15;0.50;;;0.40;;
13708;SDS011;54933;51.908;7.730;2024-02-15T13:22:45;1.00;;;0.50;;
13708;SDS011;54933;51.908;7.730;2024-02-15T13:25:12;0.60;;;0.50;;
13708;SDS011;54933;51.908;7.730;2024-02-15T13:27:41;0.60;;;0.60;;
13708;SDS011;54933;51.908;7.730;2024-02-15T13:30:08;0.50;;;0.50;;
13708;SDS011;54933;51.908;7.730;2024-02-15T13:32:37;0.50;;;0.50;;
13708;SDS011;54933;51.908;7.730;2024-02-15T13:35:07;0.53;;;0.40;;
13708;SDS011;54933;51.908;7.730;2024-02-15T13:37:45;0.50;;;0.50;;
13708;SDS011;54933;51.908;7.730;2024-02-15T13:40:12;0.60;;;0.60;;
13708;SDS011;54933;51.908;7.730;2024-02-15T13:42:40;0.57;;;0.57;;
13708;SDS011;54933;51.908;7.730;2024-02-15T13:45:11;0.63;;;0.20;;
13708;SDS011;54933;51.908;7.730;2024-02-15T13:47:38;0.43;;;0.43;;
13708;SDS011;54933;51.908;7.730;2024-02-15T13:50:04;1.67;;;0.67;;
13708;SDS011;54933;51.908;7.730;2024-02-15T13:52:29;0.43;;;0.43;;
13708;SDS011;54933;51.908;7.730;2024-02-15T13:54:56;0.50;;;0.50;;
13708;SDS011;54933;51.908;7.730;2024-02-15T13:57:21;0.40;;;0.40;;
13708;SDS011;54933;51.908;7.730;2024-02-15T13:59:48;0.57;;;0.57;;
13708;SDS011;54933;51.908;7.730;2024-02-15T14:02:13;0.53;;;0.50;;
13708;SDS011;54933;51.908;7.730;2024-02-15T14:04:39;0.47;;;0.47;;
13708;SDS011;54933;51.908;7.730;2024-02-15T14:07:05;0.53;;;0.50;;
13708;SDS011;54933;51.908;7.730;2024-02-15T14:09:30;0.40;;;0.40;;
13708;SDS011;54933;51.908;7.730;2024-02-15T14:11:55;0.40;;;0.40;;
13708;SDS011;54933;51.908;7.730;2024-02-15T14:14:21;0.60;;;0.50;;
13708;SDS011;54933;51.908;7.730;2024-02-15T14:16:47;0.67;;;0.60;;
13708;SDS011;54933;51.908;7.730;2024-02-15T14:19:12;1.07;;;0.50;;
13708;SDS011;54933;51.908;7.730;2024-02-15T14:21:38;0.50;;;0.50;;
13708;SDS011;54933;51.908;7.730;2024-02-15T14:24:05;0.50;;;0.40;;
13708;SDS011;54933;51.908;7.730;2024-02-15T14:26:33;0.27;;;0.27;;
13708;SDS011;54933;51.908;7.730;2024-02-15T14:28:58;0.53;;;0.50;;
13708;SDS011;54933;51.908;7.730;2024-02-15T14:31:26;0.83;;;0.40;;
13708;SDS011;54933;51.908;7.730;2024-02-15T14:34:10;0.40;;;0.33;;
13708;SDS011;54933;51.908;7.730;2024-02-15T14:36:35;0.30;;;0.30;;
13708;SDS011;54933;51.908;7.730;2024-02-15T14:39:01;0.43;;;0.40;;
13708;SDS011;54933;51.908;7.730;2024-02-15T14:41:26;0.40;;;0.40;;
13708;SDS011;54933;51.908;7.730;2024-02-15T14:43:53;0.40;;;0.40;;
13708;SDS011;54933;51.908;7.730;2024-02-15T14:46:19;1.33;;;0.50;;
13708;SDS011;54933;51.908;7.730;2024-02-15T14:48:45;0.87;;;0.50;;
13708;SDS011;54933;51.908;7.730;2024-02-15T14:51:14;0.47;;;0.47;;
13708;SDS011;54933;51.908;7.730;2024-02-15T14:53:40;0.50;;;0.40;;
13708;SDS011;54933;51.908;7.730;2024-02-15T14:56:06;0.47;;;0.47;;
13708;SDS011;54933;51.908;7.730;2024-02-15T14:58:32;1.40;;;0.43;;
13708;SDS011;54933;51.908;7.730;2024-02-15T15:00:58;0.87;;;0.60;;
13708;SDS011;54933;51.908;7.730;2024-02-15T15:03:23;0.63;;;0.60;;
13708;SDS011;54933;51.908;7.730;2024-02-15T15:05:48;0.40;;;0.40;;
13708;SDS011;54933;51.908;7.730;2024-02-15T15:08:32;1.90;;;0.60;;
13708;SDS011;54933;51.908;7.730;2024-02-15T15:11:16;0.50;;;0.50;;